Terminal Aerodrome Forecast
Issued by NWS Hastings, NE

Current Version | Previous Version | Text Only | Print | Product List | Glossary On
Versions: 1 2 3 4 5 6 7 8 9 10 11 12 13 14 15 16
000
FTUS45 KGID 142334
TAFEAR
TAF
KEAR 142334Z 1500/1524 12012KT P6SM OVC035
     FM150200 07010KT P6SM FEW010 BKN025
     FM150400 05008KT 6SM BR VCTS SCT006 BKN025CB
     FM151000 01012KT 3SM -DZ BR OVC006
     FM151500 02010KT P6SM FEW006 SCT025
      AMD LTD TO CLD VIS AND WIND=

USA.gov is the U.S. government's official web portal to all federal, state and local government web resources and services.